CYTQ

Tasiujaq Airport

ICAO Code CYTQ
IATA Code YTQ
Name Tasiujaq Airport
Location Tasiujaq, Quebec, CA
Elevation 121 Feet / 36.9 Meters
Latitude 58.66777778
Longitude -69.95583333
METAR CYTQ 072100Z 12006KT 15SM SCT033 BKN240 07/01 A3009 RMK SC7CI1 CI TR LAST OBS/NEXT 081200UTC SLP193
Extra information Display Charts and CFS
Display NOTAMS
Runway Length Width Surface Elevation
05 3519 ft 100 ft GRAVEL 121 ft
23 3519 ft 100 ft GRAVEL 103 ft